Riverton, Mississippi
Current Conditions -  °F | °C
As of 11:35 AM on Thursday 30 Oct 2014 (Local Time) from KCKM Reporting Station
Clear Clear  
Wind Chill: 66°   Ceiling: Unl
Heat Index: 66°   Visibility: 10mi
Dew Point: 39°   Wind: 0mph
Humidity: 37%   Direction: NA
Pressure: 30.16"   Gusts: NA
Location:  34.1809°N, 90.6118°W
Report Text: KCKM 301635Z AUTO 00000KT 10SM CLR 19/04 A3016 RMK AO1
Loading
Personal Weather Stations






























Interactive Weather Map
Tropical Storm Tracking
New forecast layout! Learn more

10-Day Weather Forecast

Advertisements
Track Severe Weather on mobile